createdAt,value
2023-02-13T00:01:26.225Z,18787.63
2023-02-13T00:03:54.652Z,18814.03
2023-02-13T00:06:23.485Z,18751.06
2023-02-13T00:08:51.651Z,18777.47
2023-02-13T00:11:20.560Z,18787.63
2023-02-13T00:13:49.138Z,18803.88
2023-02-13T00:16:18.820Z,18775.44
2023-02-13T00:18:46.963Z,18765.28
2023-02-13T00:21:15.259Z,18773.41
2023-02-13T00:23:43.426Z,18777.47
2023-02-13T00:26:15.471Z,18751.06
2023-02-13T00:28:43.755Z,18740.91
2023-02-13T00:31:15.316Z,18763.25
2023-02-13T00:33:45.215Z,18740.91
2023-02-13T00:36:16.542Z,18761.22
2023-02-13T00:38:45.716Z,18740.91
2023-02-13T00:41:16.573Z,18759.19
2023-02-13T00:43:45.095Z,18765.28
2023-02-13T00:46:13.363Z,18730.75
2023-02-13T00:48:41.939Z,18773.41
2023-02-13T00:51:12.519Z,18728.72
2023-02-13T00:53:40.939Z,18728.72
2023-02-13T00:56:09.724Z,18720.59
2023-02-13T00:58:38.314Z,18742.94
2023-02-13T01:01:06.905Z,18730.75
2023-02-13T01:03:35.128Z,18769.34
2023-02-13T01:06:03.361Z,18753.09
2023-02-13T01:08:32.862Z,18738.88
2023-02-13T01:11:01.173Z,18761.22
2023-02-13T01:13:29.315Z,18761.22
2023-02-13T01:15:57.501Z,18742.94
2023-02-13T01:18:25.879Z,18714.50
2023-02-13T01:21:00.005Z,18744.97
2023-02-13T01:23:33.558Z,18728.72
2023-02-13T01:26:01.990Z,18728.72
2023-02-13T01:28:30.190Z,18742.94
2023-02-13T01:31:00.058Z,18724.66
2023-02-13T01:33:30.375Z,18736.84
2023-02-13T01:36:00.142Z,18744.97
2023-02-13T01:38:28.227Z,18785.59
2023-02-13T01:40:58.051Z,18779.50
2023-02-13T01:43:43.457Z,18742.94
2023-02-13T01:46:13.124Z,18749.03
2023-02-13T01:48:41.570Z,18759.19
2023-02-13T01:51:17.031Z,18773.41
2023-02-13T01:53:51.260Z,18791.69
2023-02-13T01:56:27.570Z,18771.38
2023-02-13T01:59:01.928Z,18781.53
2023-02-13T02:01:32.686Z,18755.13
2023-02-13T02:04:08.797Z,18755.13
2023-02-13T02:06:42.561Z,18767.31
2023-02-13T02:09:16.854Z,18769.34
2023-02-13T02:11:54.685Z,18728.72
2023-02-13T02:14:23.168Z,18747.00
2023-02-13T02:16:51.374Z,18761.22
2023-02-13T02:19:34.194Z,18744.97
2023-02-13T02:22:55.838Z,18773.41
2023-02-13T02:26:08.657Z,18765.28
2023-02-13T02:29:18.872Z,18799.81
2023-02-13T02:32:18.116Z,18777.47
2023-02-13T02:35:06.108Z,18767.31
2023-02-13T02:38:00.533Z,18775.44
2023-02-13T02:40:43.961Z,18779.50
2023-02-13T02:43:29.253Z,18753.09
2023-02-13T02:46:11.274Z,18765.28
2023-02-13T02:49:09.713Z,18749.03
2023-02-13T02:51:49.545Z,18769.34
2023-02-13T02:54:44.717Z,18755.13
2023-02-13T02:57:19.425Z,18755.13
2023-02-13T03:00:07.936Z,18789.66
2023-02-13T03:02:53.985Z,18753.09
2023-02-13T03:05:48.302Z,18805.91
2023-02-13T03:08:37.662Z,18777.47
2023-02-13T03:11:24.689Z,18795.75
2023-02-13T03:13:54.413Z,18787.63
2023-02-13T03:16:44.242Z,18769.34
2023-02-13T03:19:39.094Z,18747.00
2023-02-13T03:22:24.370Z,18807.94
2023-02-13T03:25:12.651Z,18765.28
2023-02-13T03:28:08.081Z,18781.53
2023-02-13T03:30:57.833Z,18785.59
2023-02-13T03:33:45.781Z,18805.91
2023-02-13T03:36:46.642Z,18759.19
2023-02-13T03:39:24.882Z,18763.25
2023-02-13T03:42:02.664Z,18751.06
2023-02-13T03:44:36.868Z,18753.09
2023-02-13T03:47:10.308Z,18797.78
2023-02-13T03:50:04.033Z,18761.22
2023-02-13T03:52:37.777Z,18775.44
2023-02-13T03:55:30.412Z,18816.06
2023-02-13T03:58:21.744Z,18757.16
2023-02-13T04:00:55.194Z,18779.50
2023-02-13T04:03:29.914Z,18775.44
2023-02-13T04:06:05.503Z,18771.38
2023-02-13T04:08:33.871Z,18783.56
2023-02-13T04:11:15.015Z,18787.63
2023-02-13T04:13:53.111Z,18728.72
2023-02-13T04:16:29.978Z,18775.44
2023-02-13T04:19:00.731Z,18783.56
2023-02-13T04:21:29.201Z,18761.22
2023-02-13T04:23:57.332Z,18781.53
2023-02-13T04:26:33.907Z,18759.19
2023-02-13T04:29:02.159Z,18722.63
2023-02-13T04:31:30.350Z,18795.75
2023-02-13T04:33:58.591Z,18761.22
2023-02-13T04:36:27.022Z,18755.13
2023-02-13T04:38:55.358Z,18773.41
2023-02-13T04:41:23.473Z,18759.19
2023-02-13T04:43:52.982Z,18753.09
2023-02-13T04:46:21.162Z,18777.47
2023-02-13T04:48:49.311Z,18759.19
2023-02-13T04:51:17.538Z,18793.72
2023-02-13T04:53:45.681Z,18797.78
2023-02-13T04:56:14.305Z,18791.69
2023-02-13T04:58:42.885Z,18797.78
2023-02-13T05:01:17.697Z,18807.94
2023-02-13T05:03:45.937Z,18761.22
2023-02-13T05:06:14.282Z,18787.63
2023-02-13T05:08:42.709Z,18777.47
2023-02-13T05:11:10.837Z,18793.72
2023-02-13T05:13:38.967Z,18757.16
2023-02-13T05:16:07.812Z,18781.53
2023-02-13T05:18:37.527Z,18747.00
2023-02-13T05:21:23.531Z,18751.06
2023-02-13T05:23:51.622Z,18726.69
2023-02-13T05:26:19.709Z,18749.03
2023-02-13T05:29:05.243Z,18757.16
2023-02-13T05:31:33.485Z,18753.09
2023-02-13T05:34:03.005Z,18755.13
2023-02-13T05:36:31.137Z,18751.06
2023-02-13T05:38:59.277Z,18728.72
2023-02-13T05:41:27.635Z,18749.03
2023-02-13T05:43:55.851Z,18767.31
2023-02-13T05:46:24.041Z,18753.09
2023-02-13T05:48:52.954Z,18783.56
2023-02-13T05:51:22.484Z,18740.91
2023-02-13T05:53:50.617Z,18753.09
2023-02-13T05:56:18.764Z,18759.19
2023-02-13T05:58:46.844Z,18773.41
2023-02-13T06:01:15.112Z,18769.34
2023-02-13T06:03:43.213Z,18736.84
2023-02-13T06:06:11.554Z,18761.22
2023-02-13T06:08:41.075Z,18744.97
2023-02-13T06:11:09.839Z,18716.53
2023-02-13T06:13:40.601Z,18728.72
2023-02-13T06:16:09.344Z,18716.53
2023-02-13T06:18:38.888Z,18730.75
2023-02-13T06:21:08.514Z,18714.50
2023-02-13T06:23:36.992Z,18736.84
2023-02-13T06:26:09.249Z,18773.41
2023-02-13T06:28:37.736Z,18757.16
2023-02-13T06:31:06.426Z,18722.63
2023-02-13T06:33:34.677Z,18712.47
2023-02-13T06:36:02.792Z,18690.09
2023-02-13T06:38:32.027Z,18710.44
2023-02-13T06:41:02.862Z,18712.47
2023-02-13T06:43:32.677Z,18744.97
2023-02-13T06:46:00.870Z,18736.84
2023-02-13T06:48:28.946Z,18700.25
2023-02-13T06:50:57.258Z,18688.06
2023-02-13T06:53:25.653Z,18728.72
2023-02-13T06:55:54.472Z,18714.50
2023-02-13T06:58:23.972Z,18730.75
2023-02-13T07:00:54.746Z,18716.53
2023-02-13T07:03:22.985Z,18716.53
2023-02-13T07:05:52.046Z,18724.66
2023-02-13T07:08:20.365Z,18716.53
2023-02-13T07:10:48.517Z,18744.97
2023-02-13T07:13:16.724Z,18738.88
2023-02-13T07:15:44.934Z,18736.84
2023-02-13T07:18:14.538Z,18744.97
2023-02-13T07:20:42.676Z,18726.69
2023-02-13T07:23:12.010Z,18781.53
2023-02-13T07:25:40.150Z,18769.34
2023-02-13T07:28:08.725Z,18775.44
2023-02-13T07:30:37.113Z,18747.00
2023-02-13T07:33:06.572Z,18795.75
2023-02-13T07:35:37.671Z,18793.72
2023-02-13T07:38:06.258Z,18793.72
2023-02-13T07:40:34.446Z,18830.31
2023-02-13T07:43:03.255Z,18812.00
2023-02-13T07:45:31.813Z,18799.81
2023-02-13T07:48:00.760Z,18824.22
2023-02-13T07:50:30.129Z,18850.63
2023-02-13T07:53:02.028Z,18852.66
2023-02-13T07:55:32.689Z,18854.69
2023-02-13T07:58:02.119Z,18836.41
2023-02-13T08:00:30.563Z,18893.28
2023-02-13T08:03:01.101Z,18858.75
2023-02-13T08:05:30.051Z,18907.50
2023-02-13T08:07:59.531Z,18927.84
2023-02-13T08:10:45.288Z,18919.69
2023-02-13T08:13:15.882Z,18897.34
2023-02-13T08:15:44.953Z,18960.34
2023-02-13T08:18:13.157Z,18944.09
2023-02-13T08:20:41.295Z,18958.31
2023-02-13T08:23:12.691Z,18931.91
2023-02-13T08:25:41.580Z,18909.53
2023-02-13T08:28:09.889Z,18976.59
2023-02-13T08:30:38.303Z,18956.28
2023-02-13T08:33:06.499Z,18966.44
2023-02-13T08:35:34.649Z,18980.66
2023-02-13T08:38:06.714Z,18986.75
2023-02-13T08:40:36.820Z,18950.19
2023-02-13T08:43:08.457Z,18964.41
2023-02-13T08:45:37.731Z,19003.00
2023-02-13T08:48:07.449Z,18978.63
2023-02-13T08:50:37.102Z,19027.41
2023-02-13T08:53:06.373Z,18954.25
2023-02-13T08:55:35.892Z,19005.03
2023-02-13T08:58:05.525Z,19047.72
2023-02-13T09:00:33.792Z,18988.78
2023-02-13T09:03:03.410Z,18958.31
2023-02-13T09:05:32.547Z,19053.81
2023-02-13T09:08:03.694Z,19035.53
2023-02-13T09:10:32.667Z,19005.03
2023-02-13T09:13:02.369Z,19021.31
2023-02-13T09:15:30.980Z,18988.78
2023-02-13T09:17:59.406Z,19005.03
2023-02-13T09:20:28.004Z,18978.63
2023-02-13T09:22:57.411Z,18994.88
2023-02-13T09:25:25.629Z,18982.69
2023-02-13T09:27:53.754Z,19000.97
2023-02-13T09:30:26.630Z,19035.53
2023-02-13T09:32:56.005Z,18998.94
2023-02-13T09:35:24.969Z,19009.09
2023-02-13T09:37:53.073Z,19045.69
2023-02-13T09:40:29.423Z,19074.13
2023-02-13T09:43:08.656Z,19045.69
2023-02-13T09:45:40.109Z,19070.06
2023-02-13T09:48:17.170Z,19074.13
2023-02-13T09:50:45.375Z,19055.84
2023-02-13T09:53:23.419Z,19076.16
2023-02-13T09:56:06.648Z,19045.69
2023-02-13T09:58:45.784Z,19066.00
2023-02-13T10:01:31.058Z,19068.03
2023-02-13T10:04:23.594Z,19092.41
2023-02-13T10:07:09.000Z,19116.81
2023-02-13T10:09:48.515Z,19084.28
2023-02-13T10:12:37.205Z,19088.34
2023-02-13T10:15:27.024Z,19043.66
2023-02-13T10:18:05.091Z,19084.28
2023-02-13T10:20:41.060Z,19106.66
2023-02-13T10:23:22.120Z,19039.59
2023-02-13T10:25:58.236Z,19053.81
2023-02-13T10:28:39.535Z,19082.25
2023-02-13T10:31:13.135Z,19110.72
2023-02-13T10:33:51.266Z,19131.03
2023-02-13T10:36:24.403Z,19112.75
2023-02-13T10:39:01.766Z,19139.16
2023-02-13T10:41:50.798Z,19145.25
2023-02-13T10:44:44.661Z,19108.69
2023-02-13T10:47:34.877Z,19181.81
2023-02-13T10:50:23.682Z,19194.03
2023-02-13T10:53:05.484Z,19230.59
2023-02-13T10:56:07.989Z,19181.81
2023-02-13T10:58:56.480Z,19228.56
2023-02-13T11:01:32.467Z,19212.31
2023-02-13T11:04:09.245Z,19171.66
2023-02-13T11:06:44.329Z,19200.13
2023-02-13T11:09:13.560Z,19175.72
2023-02-13T11:11:43.881Z,19177.75
2023-02-13T11:14:16.398Z,19196.06
2023-02-13T11:16:58.543Z,19198.09
2023-02-13T11:19:33.744Z,19204.19
2023-02-13T11:22:08.960Z,19192.00
2023-02-13T11:24:38.275Z,19220.44
2023-02-13T11:27:12.801Z,19159.47
2023-02-13T11:29:55.970Z,19228.56
2023-02-13T11:32:26.115Z,19305.78
2023-02-13T11:34:56.079Z,19301.72
2023-02-13T11:37:29.154Z,19285.47
2023-02-13T11:39:59.965Z,19269.22
2023-02-13T11:42:32.554Z,19311.88
2023-02-13T11:45:06.186Z,19289.53
2023-02-13T11:47:40.979Z,19320.00
2023-02-13T11:50:25.806Z,19297.66
2023-02-13T11:53:06.105Z,19330.16
2023-02-13T11:55:38.132Z,19315.94
2023-02-13T11:58:25.917Z,19279.38
2023-02-13T12:01:25.840Z,19271.25
2023-02-13T12:04:07.292Z,19305.78
2023-02-13T12:06:40.734Z,19283.44
2023-02-13T12:09:16.686Z,19277.34
2023-02-13T12:11:50.488Z,19285.47
2023-02-13T12:14:23.854Z,19285.47
2023-02-13T12:16:58.692Z,19295.63
2023-02-13T12:19:36.051Z,19273.28
2023-02-13T12:22:34.651Z,19236.69
2023-02-13T12:25:55.260Z,19271.25
2023-02-13T12:28:33.650Z,19240.75
2023-02-13T12:31:43.711Z,19263.09
2023-02-13T12:34:47.528Z,19277.34
2023-02-13T12:37:39.179Z,19250.91
2023-02-13T12:40:54.110Z,19287.50
2023-02-13T12:44:16.591Z,19281.41
2023-02-13T12:46:59.382Z,19293.59
2023-02-13T12:49:54.281Z,19336.25
2023-02-13T12:53:18.445Z,19309.84
2023-02-13T12:56:09.734Z,19320.00
2023-02-13T12:59:08.162Z,19313.91
2023-02-13T13:02:37.034Z,19261.06
2023-02-13T13:05:20.401Z,19277.34
2023-02-13T13:08:13.813Z,19254.97
2023-02-13T13:11:12.258Z,19281.41
2023-02-13T13:13:56.124Z,19250.91
2023-02-13T13:16:36.912Z,19232.63
2023-02-13T13:19:18.365Z,19240.75
2023-02-13T13:21:55.410Z,19273.28
2023-02-13T13:24:45.588Z,19252.94
2023-02-13T13:27:24.692Z,19273.28
2023-02-13T13:30:00.110Z,19230.59
2023-02-13T13:32:32.071Z,19224.50
2023-02-13T13:35:00.947Z,19244.81
2023-02-13T13:37:37.480Z,19230.59
2023-02-13T13:40:30.497Z,19222.47
2023-02-13T13:43:08.094Z,19244.81
2023-02-13T13:45:50.545Z,19271.25
2023-02-13T13:48:48.625Z,19279.38
2023-02-13T13:51:19.943Z,19224.50
2023-02-13T13:54:36.816Z,19246.84
2023-02-13T13:57:24.411Z,19269.22
2023-02-13T14:00:27.503Z,19261.06
2023-02-13T14:03:23.401Z,19267.16
2023-02-13T14:06:10.951Z,19269.22
2023-02-13T14:09:07.247Z,19240.75
2023-02-13T14:11:42.078Z,19250.91
2023-02-13T14:14:53.712Z,19283.44
2023-02-13T14:17:55.549Z,19238.72
2023-02-13T14:20:37.444Z,19257.00
2023-02-13T14:23:18.843Z,19242.78
2023-02-13T14:25:50.045Z,19216.38
2023-02-13T14:28:27.973Z,19208.25
2023-02-13T14:31:14.795Z,19218.41
2023-02-13T14:33:44.691Z,19179.78
2023-02-13T14:36:27.136Z,19196.06
2023-02-13T14:39:02.230Z,19224.50
2023-02-13T14:41:47.413Z,19165.56
2023-02-13T14:44:23.237Z,19196.06
2023-02-13T14:46:54.577Z,19171.66
2023-02-13T14:49:29.706Z,19151.34
2023-02-13T14:52:02.620Z,19179.78
2023-02-13T14:54:35.973Z,19165.56
2023-02-13T14:57:13.086Z,19167.59
2023-02-13T14:59:47.192Z,19198.09
2023-02-13T15:02:23.335Z,19175.72
2023-02-13T15:05:00.259Z,19155.41
2023-02-13T15:07:34.329Z,19141.19
2023-02-13T15:10:07.403Z,19183.84
2023-02-13T15:12:38.602Z,19216.38
2023-02-13T15:15:27.572Z,19179.78
2023-02-13T15:18:02.523Z,19131.03
2023-02-13T15:20:35.933Z,19179.78
2023-02-13T15:23:06.602Z,19131.03
2023-02-13T15:25:39.114Z,19135.09
2023-02-13T15:28:18.070Z,19139.16
2023-02-13T15:30:56.215Z,19151.34
2023-02-13T15:33:27.800Z,19187.91
2023-02-13T15:36:00.584Z,19147.28
2023-02-13T15:38:31.618Z,19094.44
2023-02-13T15:41:05.401Z,19082.25
2023-02-13T15:43:38.324Z,19118.84
2023-02-13T15:46:19.495Z,19098.50
2023-02-13T15:48:48.620Z,19098.50
2023-02-13T15:51:24.703Z,19143.22
2023-02-13T15:53:53.409Z,19057.88
2023-02-13T15:56:21.659Z,19090.38
2023-02-13T15:58:51.253Z,19100.53
2023-02-13T16:01:19.595Z,19068.03
2023-02-13T16:03:51.983Z,19108.69
2023-02-13T16:06:25.359Z,19086.31
2023-02-13T16:08:55.369Z,19057.88
2023-02-13T16:11:36.859Z,19068.03
2023-02-13T16:14:14.132Z,19072.09
2023-02-13T16:16:52.004Z,19096.47
2023-02-13T16:19:34.058Z,19072.09
2023-02-13T16:22:16.763Z,19045.69
2023-02-13T16:24:51.922Z,19094.44
2023-02-13T16:27:25.291Z,19015.19
2023-02-13T16:29:59.816Z,19053.81
2023-02-13T16:32:32.231Z,19047.72
2023-02-13T16:35:27.122Z,19015.19
2023-02-13T16:38:00.819Z,19055.84
2023-02-13T16:40:43.776Z,19025.38
2023-02-13T16:43:43.372Z,19047.72
2023-02-13T16:46:24.210Z,19019.28
2023-02-13T16:49:16.861Z,19045.69
2023-02-13T16:51:50.073Z,19029.44
2023-02-13T16:54:26.719Z,19035.53
2023-02-13T16:56:59.779Z,19005.03
2023-02-13T16:59:52.722Z,19041.63
2023-02-13T17:02:24.466Z,19049.75
2023-02-13T17:04:56.778Z,19013.16
2023-02-13T17:07:28.869Z,18992.84
2023-02-13T17:10:01.583Z,19025.38
2023-02-13T17:12:32.600Z,19021.31
2023-02-13T17:15:00.947Z,18998.94
2023-02-13T17:17:31.871Z,19021.31
2023-02-13T17:20:00.410Z,19015.19
2023-02-13T17:22:38.370Z,19023.34
2023-02-13T17:25:16.400Z,19015.19
2023-02-13T17:27:44.533Z,18980.66
2023-02-13T17:30:16.783Z,19015.19
2023-02-13T17:32:47.368Z,19027.41
2023-02-13T17:35:17.537Z,19005.03
2023-02-13T17:37:46.338Z,19025.38
2023-02-13T17:40:22.083Z,19015.19
2023-02-13T17:42:54.181Z,19007.06
2023-02-13T17:45:25.999Z,19013.16
2023-02-13T17:47:54.656Z,19017.25
2023-02-13T17:50:23.209Z,18988.78
2023-02-13T17:52:52.004Z,18988.78
2023-02-13T17:55:25.282Z,19029.44
2023-02-13T17:57:57.425Z,18968.47
2023-02-13T18:00:27.950Z,18998.94
2023-02-13T18:02:57.753Z,19003.00
2023-02-13T18:05:25.957Z,18978.63
2023-02-13T18:07:54.181Z,19011.13
2023-02-13T18:10:27.685Z,18954.25
2023-02-13T18:12:58.317Z,18956.28
2023-02-13T18:15:26.502Z,18974.56
2023-02-13T18:17:54.674Z,18980.66
2023-02-13T18:20:23.027Z,18911.56
2023-02-13T18:22:51.422Z,18990.81
2023-02-13T18:25:21.440Z,18956.28
2023-02-13T18:27:50.928Z,18950.19
2023-02-13T18:30:21.341Z,18940.03
2023-02-13T18:32:53.879Z,18968.47
2023-02-13T18:35:22.899Z,18972.53
2023-02-13T18:37:51.446Z,18962.38
2023-02-13T18:40:19.677Z,18935.97
2023-02-13T18:42:49.672Z,18958.31
2023-02-13T18:45:19.972Z,18919.69
2023-02-13T18:47:48.094Z,18929.88
2023-02-13T18:50:16.170Z,18919.69
2023-02-13T18:52:44.355Z,18897.34
2023-02-13T18:55:12.476Z,18889.22
2023-02-13T18:57:43.378Z,18872.97
2023-02-13T19:00:14.227Z,18891.25
2023-02-13T19:02:43.694Z,18868.91
2023-02-13T19:05:11.827Z,18860.78
2023-02-13T19:07:39.913Z,18842.50
2023-02-13T19:10:09.204Z,18830.31
2023-02-13T19:12:37.379Z,18838.44
2023-02-13T19:15:06.280Z,18795.75
2023-02-13T19:17:35.886Z,18779.50
2023-02-13T19:20:07.025Z,18783.56
2023-02-13T19:22:35.081Z,18789.66
2023-02-13T19:25:03.177Z,18755.13
2023-02-13T19:27:31.250Z,18773.41
2023-02-13T19:29:59.514Z,18775.44
2023-02-13T19:32:27.625Z,18785.59
2023-02-13T19:34:55.777Z,18757.16
2023-02-13T19:37:28.290Z,18755.13
2023-02-13T19:39:56.569Z,18730.75
2023-02-13T19:42:24.710Z,18738.88
2023-02-13T19:44:52.958Z,18744.97
2023-02-13T19:47:21.114Z,18730.75
2023-02-13T19:49:49.971Z,18734.81
2023-02-13T19:52:19.070Z,18706.38
2023-02-13T19:54:49.638Z,18728.72
2023-02-13T19:57:18.318Z,18700.25
2023-02-13T19:59:46.480Z,18686.03
2023-02-13T20:02:17.185Z,18700.25
2023-02-13T20:04:45.777Z,18679.94
2023-02-13T20:07:14.407Z,18659.63
2023-02-13T20:09:42.580Z,18698.22
2023-02-13T20:12:12.154Z,18684.00
2023-02-13T20:14:40.315Z,18702.28
2023-02-13T20:17:08.450Z,18659.63
2023-02-13T20:19:37.213Z,18655.56
2023-02-13T20:22:05.359Z,18706.38
2023-02-13T20:24:33.695Z,18675.88
2023-02-13T20:27:01.855Z,18690.09
2023-02-13T20:29:31.293Z,18629.16
2023-02-13T20:31:59.651Z,18661.66
2023-02-13T20:34:29.644Z,18663.69
2023-02-13T20:36:59.707Z,18635.25
2023-02-13T20:39:27.907Z,18647.44
2023-02-13T20:41:56.031Z,18639.31
2023-02-13T20:44:24.166Z,18627.13
2023-02-13T20:46:54.882Z,18645.41
2023-02-13T20:49:23.005Z,18647.44
2023-02-13T20:51:51.244Z,18639.31
2023-02-13T20:54:20.162Z,18623.06
2023-02-13T20:56:48.305Z,18621.03
2023-02-13T20:59:16.433Z,18578.38
2023-02-13T21:01:45.591Z,18612.91
2023-02-13T21:04:19.052Z,18610.88
2023-02-13T21:06:48.735Z,18623.06
2023-02-13T21:09:17.381Z,18643.38
2023-02-13T21:11:46.284Z,18663.69
2023-02-13T21:14:15.435Z,18643.38
2023-02-13T21:16:44.849Z,18623.06
2023-02-13T21:19:20.139Z,18619.00
2023-02-13T21:21:48.988Z,18614.94
2023-02-13T21:24:21.082Z,18643.38
2023-02-13T21:26:51.898Z,18627.13
2023-02-13T21:29:20.413Z,18612.91
2023-02-13T21:31:48.949Z,18627.13
2023-02-13T21:34:19.659Z,18633.22
2023-02-13T21:36:48.182Z,18614.94
2023-02-13T21:39:16.840Z,18645.41
2023-02-13T21:41:46.753Z,18669.78
2023-02-13T21:44:17.668Z,18659.63
2023-02-13T21:46:47.320Z,18659.63
2023-02-13T21:49:19.242Z,18661.66
2023-02-13T21:51:48.567Z,18692.13
2023-02-13T21:54:16.757Z,18667.75
2023-02-13T21:56:45.738Z,18702.28
2023-02-13T21:59:16.920Z,18679.94
2023-02-13T22:01:46.922Z,18688.06
2023-02-13T22:04:15.558Z,18679.94
2023-02-13T22:06:49.311Z,18692.13
2023-02-13T22:09:20.857Z,18718.56
2023-02-13T22:11:51.718Z,18716.53
2023-02-13T22:14:20.394Z,18694.16
2023-02-13T22:16:51.883Z,18708.41
2023-02-13T22:19:20.864Z,18675.88
2023-02-13T22:21:50.581Z,18710.44
2023-02-13T22:24:18.772Z,18740.91
2023-02-13T22:26:47.091Z,18710.44
2023-02-13T22:29:18.469Z,18775.44
2023-02-13T22:31:47.815Z,18753.09
2023-02-13T22:34:16.642Z,18722.63
2023-02-13T22:36:44.850Z,18730.75
2023-02-13T22:39:14.334Z,18724.66
2023-02-13T22:41:45.479Z,18722.63
2023-02-13T22:44:13.723Z,18809.97
2023-02-13T22:46:41.863Z,18738.88
2023-02-13T22:49:10.039Z,18783.56
2023-02-13T22:51:38.414Z,18740.91
2023-02-13T22:54:07.587Z,18742.94
2023-02-13T22:56:37.084Z,18744.97
2023-02-13T22:59:05.227Z,18781.53
2023-02-13T23:01:33.385Z,18728.72
2023-02-13T23:04:01.742Z,18744.97
2023-02-13T23:06:30.174Z,18747.00
2023-02-13T23:08:58.797Z,18747.00
2023-02-13T23:11:46.868Z,18769.34
2023-02-13T23:14:17.024Z,18771.38
2023-02-13T23:17:03.224Z,18761.22
2023-02-13T23:19:32.120Z,18785.59
2023-02-13T23:22:00.930Z,18757.16
2023-02-13T23:24:30.197Z,18753.09
2023-02-13T23:26:58.520Z,18763.25
2023-02-13T23:29:28.530Z,18787.63
2023-02-13T23:31:57.058Z,18785.59
2023-02-13T23:34:25.314Z,18787.63
2023-02-13T23:36:53.479Z,18775.44
2023-02-13T23:39:21.778Z,18797.78
2023-02-13T23:41:49.883Z,18714.50
2023-02-13T23:44:18.110Z,18765.28
2023-02-13T23:46:47.604Z,18783.56
2023-02-13T23:49:15.960Z,18773.41
2023-02-13T23:51:44.151Z,18755.13
2023-02-13T23:54:16.906Z,18771.38
2023-02-13T23:56:45.451Z,18775.44
2023-02-13T23:59:14.059Z,18747.00
